createdAt,value
2023-04-05T18:02:57.256Z,6.40
2023-04-05T18:03:57.214Z,6.20
2023-04-05T18:04:57.066Z,6.10
2023-04-05T18:05:56.990Z,5.20
2023-04-05T18:06:56.981Z,6.40
2023-04-05T18:07:56.904Z,5.10
2023-04-05T18:08:56.850Z,6.90
2023-04-05T18:17:33.046Z,5.90
2023-04-05T18:18:33.000Z,5.10
2023-04-05T18:19:32.930Z,4.60
2023-04-05T18:20:32.882Z,5.00
2023-04-05T18:21:32.833Z,5.50
2023-04-05T18:22:32.784Z,5.90
2023-04-05T18:23:32.742Z,6.30
2023-04-05T18:24:32.700Z,5.90
2023-04-05T18:25:32.648Z,4.80
2023-04-05T18:26:32.601Z,5.70
2023-04-05T18:27:32.551Z,6.20
2023-04-05T18:28:32.502Z,5.70
2023-04-05T18:29:32.462Z,7.20
2023-04-05T18:30:32.418Z,5.30
2023-04-05T18:31:32.367Z,6.70
2023-04-05T18:32:32.336Z,5.20
2023-04-05T18:33:32.271Z,5.70
2023-04-05T18:34:32.236Z,8.00
2023-04-05T18:35:32.182Z,5.00
2023-04-05T18:36:32.124Z,5.90
2023-04-05T18:37:32.078Z,4.60
2023-04-05T18:38:32.031Z,5.90
2023-04-05T18:39:31.987Z,6.50
2023-04-05T18:40:31.949Z,4.90
2023-04-05T18:41:31.902Z,5.70
2023-04-05T18:42:31.845Z,6.60
2023-04-05T18:43:31.807Z,5.40
2023-04-05T18:46:00.361Z,6.40
2023-04-05T18:47:00.258Z,5.20
2023-04-05T18:48:00.333Z,5.80
2023-04-05T18:49:00.173Z,6.50
2023-04-05T18:50:00.202Z,5.60
2023-04-05T18:51:00.115Z,5.10
2023-04-05T18:53:00.009Z,6.60
2023-04-05T18:53:59.951Z,5.50
2023-04-05T18:54:59.891Z,7.90
2023-04-05T18:55:59.844Z,5.70
2023-04-05T18:57:00.217Z,6.20
2023-04-05T18:57:59.773Z,5.90
2023-04-05T18:58:59.764Z,6.30
2023-04-05T18:59:59.681Z,8.40
2023-04-05T19:00:59.670Z,6.10
2023-04-05T19:01:59.606Z,6.00
2023-04-05T19:02:59.643Z,7.10
2023-04-05T19:03:59.485Z,5.20
2023-04-05T19:04:59.439Z,7.90
2023-04-05T19:05:59.411Z,6.80
2023-04-05T19:06:59.348Z,5.70
2023-04-05T19:07:59.316Z,6.60
2023-04-05T19:10:59.174Z,7.10
2023-04-05T19:11:59.127Z,6.30
2023-04-05T19:12:59.079Z,6.80
2023-04-05T19:15:12.457Z,6.10
2023-04-05T19:16:12.441Z,7.90
2023-04-05T19:17:12.361Z,7.00
2023-04-05T19:18:12.307Z,9.40
2023-04-05T19:19:12.263Z,6.00
2023-04-05T19:20:12.218Z,5.70
2023-04-05T19:21:12.191Z,7.70
2023-04-05T19:22:12.120Z,7.80
2023-04-05T19:25:11.989Z,10.90
2023-04-05T19:26:11.946Z,8.80
2023-04-05T19:27:11.905Z,7.60
2023-04-05T19:29:12.009Z,11.30
2023-04-05T19:30:11.856Z,9.60
2023-04-05T19:32:11.688Z,8.20
2023-04-05T19:34:11.576Z,9.00
2023-04-05T19:35:11.537Z,8.30
2023-04-05T19:36:11.563Z,9.70
2023-04-05T19:37:11.448Z,8.70
2023-04-05T19:38:11.387Z,7.90
2023-04-05T19:39:11.338Z,9.00
2023-04-05T19:40:11.297Z,11.20
2023-04-05T19:41:11.248Z,13.60
2023-04-05T19:43:11.160Z,11.40
2023-04-05T19:44:11.106Z,10.50
2023-04-05T19:45:11.070Z,10.80
2023-04-05T19:46:11.105Z,11.50
2023-04-05T19:47:10.972Z,16.30
2023-04-05T19:48:10.943Z,14.80
2023-04-05T19:49:10.908Z,19.20
2023-04-05T19:50:11.081Z,15.10
2023-04-05T19:51:10.782Z,16.70
2023-04-05T19:52:10.743Z,17.40
2023-04-05T19:53:10.712Z,17.40
2023-04-05T19:54:10.645Z,16.30
2023-04-05T19:56:10.564Z,12.00
2023-04-05T19:57:14.135Z,13.40
2023-04-05T19:58:10.477Z,12.80
2023-04-05T19:59:10.766Z,13.20
2023-04-05T20:00:10.362Z,10.80
2023-04-05T20:01:10.328Z,12.00
2023-04-05T20:03:10.272Z,9.10
2023-04-05T20:05:43.630Z,11.00
2023-04-05T20:06:43.565Z,10.70
2023-04-05T20:07:43.516Z,11.40
2023-04-05T20:08:43.494Z,11.60
2023-04-05T20:09:43.424Z,9.90
2023-04-05T20:10:43.389Z,10.60
2023-04-05T20:11:43.349Z,12.80
2023-04-05T20:12:43.588Z,15.40
2023-04-05T20:13:43.243Z,13.30
2023-04-05T20:14:43.219Z,13.60
2023-04-05T20:15:43.152Z,15.20
2023-04-05T20:16:43.168Z,10.80
2023-04-05T20:17:43.112Z,10.60
2023-04-05T20:18:43.005Z,11.60
2023-04-05T20:24:41.415Z,10.20
2023-04-05T20:25:41.333Z,10.70
2023-04-05T20:26:41.390Z,9.40
2023-04-05T20:33:34.481Z,9.50
2023-04-05T20:42:14.605Z,10.30
2023-04-05T20:46:01.215Z,8.90
2023-04-05T21:01:15.808Z,7.80
2023-04-05T21:13:40.359Z,9.20
2023-04-05T21:14:40.274Z,10.50
2023-04-05T21:15:40.262Z,8.70
2023-04-05T21:22:37.263Z,9.20
2023-04-05T21:23:37.205Z,9.50
2023-04-05T21:57:30.769Z,22.60
2023-04-05T22:10:21.530Z,26.30
2023-04-05T22:26:02.898Z,13.50
2023-04-05T22:27:02.827Z,12.10
2023-04-05T22:28:02.772Z,16.40
2023-04-05T22:29:02.724Z,15.30
